TVF73JT LIPZ-LFPO
Flight info
| Callsign | TVF73JT |
|---|---|
| Flight time | 1h 27m |
| Altitude | 36000 |
| Route | VIC DCT ADOSA DCT NESTI DCT PUNSA DCT UNKIR DCT DJL |
| Aircraft | B738/M-SDE2E3FGHIRWXY/LB1 |
Departure
| Time | 2026-05-06 09:32 |
|---|---|
| Airport | Venice Marco Polo Airport (LIPZ) |
Arrival
| Time | 2026-05-06 10:59 |
|---|---|
| Airport | Paris-Orly Airport (LFPO) |
| Time | Latitude | Longitude | Altitude | Speed | Heading |
|---|---|---|---|---|---|
| 2026-05-06 09:23 | 45.50117 | 12.34136 | 16 ft | 4 kts | 50° |
| 2026-05-06 09:24 | 45.50101 | 12.34106 | 15 ft | 4 kts | 47° |
| 2026-05-06 09:24 | 45.50093 | 12.34095 | 15 ft | 1 kts | 42° |
| 2026-05-06 09:26 | 45.50097 | 12.34095 | 15 ft | 1 kts | 7° |
| 2026-05-06 09:26 | 45.50099 | 12.34086 | 15 ft | 1 kts | 273° |
| 2026-05-06 09:26 | 45.50077 | 12.34062 | 15 ft | 8 kts | 213° |
| 2026-05-06 09:27 | 45.50023 | 12.34001 | 14 ft | 11 kts | 221° |
| 2026-05-06 09:27 | 45.49966 | 12.33930 | 15 ft | 11 kts | 222° |
| 2026-05-06 09:27 | 45.49911 | 12.33860 | 16 ft | 10 kts | 221° |
| 2026-05-06 09:27 | 45.49857 | 12.33791 | 15 ft | 10 kts | 223° |
| 2026-05-06 09:28 | 45.49806 | 12.33724 | 15 ft | 10 kts | 222° |
| 2026-05-06 09:28 | 45.49753 | 12.33663 | 15 ft | 10 kts | 210° |
| 2026-05-06 09:28 | 45.49693 | 12.33619 | 17 ft | 10 kts | 211° |
| 2026-05-06 09:28 | 45.49640 | 12.33561 | 15 ft | 9 kts | 221° |
| 2026-05-06 09:29 | 45.49587 | 12.33514 | 17 ft | 9 kts | 185° |
| 2026-05-06 09:29 | 45.49538 | 12.33564 | 16 ft | 9 kts | 133° |
| 2026-05-06 09:29 | 45.49496 | 12.33627 | 16 ft | 9 kts | 133° |
| 2026-05-06 09:29 | 45.49450 | 12.33698 | 15 ft | 10 kts | 131° |
| 2026-05-06 09:30 | 45.49414 | 12.33768 | 15 ft | 3 kts | 80° |
| 2026-05-06 09:30 | 45.49431 | 12.33802 | 16 ft | 2 kts | 44° |
| 2026-05-06 09:30 | 45.49444 | 12.33819 | 14 ft | 0 kts | 43° |
| 2026-05-06 09:31 | 45.49462 | 12.33843 | 16 ft | 13 kts | 43° |
| 2026-05-06 09:31 | 45.49693 | 12.34139 | 12 ft | 81 kts | 42° |
| 2026-05-06 09:31 | 45.50278 | 12.34886 | 14 ft | 142 kts | 42° |
| 2026-05-06 09:31 | 45.51121 | 12.35963 | 260 ft | 170 kts | 42° |
| 2026-05-06 09:32 | 45.51984 | 12.37073 | 998 ft | 169 kts | 45° |
| 2026-05-06 09:32 | 45.52871 | 12.38255 | 1511 ft | 182 kts | 48° |
| 2026-05-06 09:32 | 45.53799 | 12.39528 | 2165 ft | 190 kts | 47° |
| 2026-05-06 09:32 | 45.54760 | 12.40985 | 2534 ft | 212 kts | 61° |
| 2026-05-06 09:33 | 45.55124 | 12.43039 | 2797 ft | 222 kts | 101° |
| 2026-05-06 09:33 | 45.54463 | 12.45006 | 3137 ft | 227 kts | 141° |
| 2026-05-06 09:33 | 45.53031 | 12.45912 | 3549 ft | 235 kts | 170° |
| 2026-05-06 09:33 | 45.51350 | 12.46306 | 3959 ft | 251 kts | 171° |
| 2026-05-06 09:34 | 45.49620 | 12.46748 | 4787 ft | 253 kts | 170° |
| 2026-05-06 09:34 | 45.47882 | 12.47270 | 5532 ft | 259 kts | 169° |
| 2026-05-06 09:34 | 45.46101 | 12.47569 | 5926 ft | 259 kts | 191° |
| 2026-05-06 09:34 | 45.44503 | 12.46436 | 6607 ft | 261 kts | 223° |
| 2026-05-06 09:35 | 45.43473 | 12.44325 | 7288 ft | 263 kts | 246° |
| 2026-05-06 09:35 | 45.43090 | 12.41758 | 7921 ft | 270 kts | 268° |
| 2026-05-06 09:35 | 45.43410 | 12.39118 | 8659 ft | 273 kts | 281° |
| 2026-05-06 09:35 | 45.43896 | 12.36529 | 9344 ft | 275 kts | 282° |
| 2026-05-06 09:36 | 45.44393 | 12.33891 | 10042 ft | 277 kts | 282° |
| 2026-05-06 09:36 | 45.44894 | 12.31176 | 10316 ft | 294 kts | 281° |
| 2026-05-06 09:36 | 45.45434 | 12.28268 | 10464 ft | 314 kts | 284° |
| 2026-05-06 09:36 | 45.46216 | 12.25263 | 10607 ft | 333 kts | 290° |
| 2026-05-06 09:37 | 45.47161 | 12.22187 | 10942 ft | 343 kts | 291° |
| 2026-05-06 09:37 | 45.48150 | 12.19066 | 11416 ft | 347 kts | 291° |
| 2026-05-06 09:37 | 45.49144 | 12.15918 | 11957 ft | 350 kts | 290° |
| 2026-05-06 09:37 | 45.50136 | 12.12734 | 12483 ft | 352 kts | 289° |
| 2026-05-06 09:38 | 45.51117 | 12.09543 | 13183 ft | 351 kts | 288° |
| 2026-05-06 09:38 | 45.52095 | 12.06304 | 13687 ft | 358 kts | 288° |
| 2026-05-06 09:38 | 45.53089 | 12.03036 | 14158 ft | 361 kts | 288° |
| 2026-05-06 09:38 | 45.54086 | 11.99747 | 14614 ft | 362 kts | 288° |
| 2026-05-06 09:39 | 45.55085 | 11.96429 | 15012 ft | 365 kts | 288° |
| 2026-05-06 09:39 | 45.56091 | 11.93081 | 15375 ft | 369 kts | 288° |
| 2026-05-06 09:39 | 45.57090 | 11.89750 | 15748 ft | 371 kts | 288° |
| 2026-05-06 09:39 | 45.58121 | 11.86306 | 16115 ft | 374 kts | 287° |
| 2026-05-06 09:40 | 45.59132 | 11.82925 | 16470 ft | 376 kts | 287° |
| 2026-05-06 09:40 | 45.60163 | 11.79475 | 16824 ft | 379 kts | 287° |
| 2026-05-06 09:40 | 45.62243 | 11.72500 | 17526 ft | 383 kts | 287° |
| 2026-05-06 09:41 | 45.63208 | 11.68955 | 17841 ft | 382 kts | 280° |
| 2026-05-06 09:41 | 45.63748 | 11.65263 | 18158 ft | 377 kts | 270° |
| 2026-05-06 09:41 | 45.63862 | 11.61545 | 18456 ft | 374 kts | 265° |
| 2026-05-06 09:41 | 45.63891 | 11.57825 | 18754 ft | 375 kts | 265° |
| 2026-05-06 09:42 | 45.63913 | 11.54091 | 19038 ft | 376 kts | 265° |
| 2026-05-06 09:42 | 45.63939 | 11.50352 | 19320 ft | 377 kts | 265° |
| 2026-05-06 09:42 | 45.63972 | 11.46611 | 19596 ft | 378 kts | 265° |
| 2026-05-06 09:42 | 45.64009 | 11.42855 | 19871 ft | 378 kts | 265° |
| 2026-05-06 09:43 | 45.64049 | 11.39091 | 20116 ft | 379 kts | 265° |
| 2026-05-06 09:43 | 45.64089 | 11.35316 | 20330 ft | 380 kts | 265° |
| 2026-05-06 09:43 | 45.64128 | 11.31534 | 20566 ft | 381 kts | 265° |
| 2026-05-06 09:43 | 45.64168 | 11.27751 | 20862 ft | 381 kts | 265° |
| 2026-05-06 09:44 | 45.64207 | 11.23963 | 21201 ft | 381 kts | 265° |
| 2026-05-06 09:44 | 45.64232 | 11.21444 | 21338 ft | 383 kts | 265° |
| 2026-05-06 09:44 | 45.64269 | 11.17638 | 21567 ft | 384 kts | 265° |
| 2026-05-06 09:44 | 45.64304 | 11.13822 | 21828 ft | 384 kts | 265° |
| 2026-05-06 09:45 | 45.64337 | 11.10000 | 22037 ft | 385 kts | 265° |
| 2026-05-06 09:45 | 45.64425 | 11.04917 | 22309 ft | 389 kts | 269° |
| 2026-05-06 09:45 | 45.64680 | 11.02311 | 22439 ft | 394 kts | 275° |
| 2026-05-06 09:45 | 45.65417 | 10.98503 | 22680 ft | 402 kts | 284° |
| 2026-05-06 09:46 | 45.66422 | 10.94767 | 22917 ft | 403 kts | 285° |
| 2026-05-06 09:46 | 45.67454 | 10.91034 | 23109 ft | 404 kts | 285° |
| 2026-05-06 09:46 | 45.68489 | 10.87290 | 23256 ft | 405 kts | 285° |
| 2026-05-06 09:46 | 45.69519 | 10.83532 | 23433 ft | 406 kts | 284° |
| 2026-05-06 09:47 | 45.70529 | 10.79809 | 23585 ft | 406 kts | 284° |
| 2026-05-06 09:47 | 45.71547 | 10.76027 | 23741 ft | 406 kts | 284° |
| 2026-05-06 09:47 | 45.72559 | 10.72247 | 23912 ft | 407 kts | 284° |
| 2026-05-06 09:47 | 45.73568 | 10.68465 | 24066 ft | 406 kts | 284° |
| 2026-05-06 09:48 | 45.74574 | 10.64685 | 24219 ft | 407 kts | 284° |
| 2026-05-06 09:48 | 45.75581 | 10.60901 | 24428 ft | 406 kts | 283° |
| 2026-05-06 09:48 | 45.76588 | 10.57115 | 24489 ft | 407 kts | 284° |
| 2026-05-06 09:48 | 45.77595 | 10.53319 | 24563 ft | 407 kts | 283° |
| 2026-05-06 09:49 | 45.78600 | 10.49522 | 24653 ft | 408 kts | 283° |
| 2026-05-06 09:49 | 45.79607 | 10.45714 | 24739 ft | 409 kts | 283° |
| 2026-05-06 09:49 | 45.80540 | 10.41886 | 24862 ft | 404 kts | 278° |
| 2026-05-06 09:49 | 45.81101 | 10.37978 | 24982 ft | 399 kts | 273° |
| 2026-05-06 09:50 | 45.81567 | 10.34105 | 25108 ft | 400 kts | 273° |
| 2026-05-06 09:50 | 45.82028 | 10.30173 | 25245 ft | 400 kts | 272° |
| 2026-05-06 09:50 | 45.82491 | 10.26243 | 25396 ft | 401 kts | 272° |
| 2026-05-06 09:50 | 45.82962 | 10.22296 | 25510 ft | 402 kts | 273° |
| 2026-05-06 09:51 | 45.83439 | 10.18344 | 25626 ft | 403 kts | 273° |
| 2026-05-06 09:51 | 45.83919 | 10.14392 | 25720 ft | 403 kts | 273° |
| 2026-05-06 09:51 | 45.84404 | 10.10425 | 25798 ft | 403 kts | 273° |
| 2026-05-06 09:51 | 45.84887 | 10.06474 | 25893 ft | 403 kts | 273° |
| 2026-05-06 09:52 | 45.85371 | 10.02507 | 25952 ft | 404 kts | 273° |
| 2026-05-06 09:52 | 45.85855 | 9.98533 | 26056 ft | 404 kts | 272° |
| 2026-05-06 09:52 | 45.86338 | 9.94564 | 26091 ft | 403 kts | 272° |
| 2026-05-06 09:52 | 45.86814 | 9.90614 | 26225 ft | 402 kts | 272° |
| 2026-05-06 09:53 | 45.87292 | 9.86649 | 26361 ft | 403 kts | 272° |
| 2026-05-06 09:53 | 45.87762 | 9.82732 | 26402 ft | 404 kts | 272° |
| 2026-05-06 09:53 | 45.88246 | 9.78698 | 26463 ft | 405 kts | 272° |
| 2026-05-06 09:53 | 45.88716 | 9.74765 | 26501 ft | 405 kts | 272° |
| 2026-05-06 09:54 | 45.89191 | 9.70778 | 26597 ft | 405 kts | 272° |
| 2026-05-06 09:54 | 45.89665 | 9.66804 | 26724 ft | 404 kts | 272° |
| 2026-05-06 09:54 | 45.90139 | 9.62816 | 26817 ft | 404 kts | 272° |
| 2026-05-06 09:54 | 45.90610 | 9.58830 | 26883 ft | 405 kts | 272° |
| 2026-05-06 09:55 | 45.91080 | 9.54825 | 26952 ft | 406 kts | 272° |
| 2026-05-06 09:55 | 45.91547 | 9.50837 | 27067 ft | 405 kts | 272° |
| 2026-05-06 09:55 | 45.92015 | 9.46839 | 27079 ft | 407 kts | 272° |
| 2026-05-06 09:55 | 45.92481 | 9.42831 | 27513 ft | 404 kts | 272° |
| 2026-05-06 09:56 | 45.92921 | 9.38933 | 28500 ft | 388 kts | 271° |
| 2026-05-06 09:56 | 45.93361 | 9.35156 | 29363 ft | 381 kts | 271° |
| 2026-05-06 09:56 | 45.93792 | 9.31452 | 29691 ft | 381 kts | 271° |
| 2026-05-06 09:56 | 45.94230 | 9.27655 | 29860 ft | 388 kts | 271° |
| 2026-05-06 09:57 | 45.94671 | 9.23804 | 30102 ft | 393 kts | 271° |
| 2026-05-06 09:57 | 45.95116 | 9.19908 | 30337 ft | 398 kts | 271° |
| 2026-05-06 09:57 | 45.95565 | 9.15973 | 30613 ft | 400 kts | 271° |
| 2026-05-06 09:57 | 45.96017 | 9.12025 | 30993 ft | 400 kts | 271° |
| 2026-05-06 09:58 | 45.96472 | 9.08056 | 31196 ft | 405 kts | 270° |
| 2026-05-06 09:58 | 45.96923 | 9.04048 | 31413 ft | 408 kts | 270° |
| 2026-05-06 09:58 | 45.97377 | 9.00014 | 31707 ft | 409 kts | 270° |
| 2026-05-06 09:58 | 45.97829 | 8.95987 | 32045 ft | 409 kts | 270° |
| 2026-05-06 09:59 | 45.98283 | 8.91937 | 32296 ft | 411 kts | 270° |
| 2026-05-06 09:59 | 45.98737 | 8.87857 | 32558 ft | 413 kts | 270° |
| 2026-05-06 09:59 | 45.99190 | 8.83784 | 32804 ft | 414 kts | 270° |
| 2026-05-06 09:59 | 45.99644 | 8.79684 | 33071 ft | 416 kts | 270° |
| 2026-05-06 10:00 | 46.00099 | 8.75559 | 33307 ft | 417 kts | 270° |
| 2026-05-06 10:00 | 46.00553 | 8.71435 | 33504 ft | 420 kts | 270° |
| 2026-05-06 10:00 | 46.01464 | 8.63079 | 33667 ft | 428 kts | 271° |
| 2026-05-06 10:01 | 46.01924 | 8.58853 | 33904 ft | 426 kts | 270° |
| 2026-05-06 10:01 | 46.02381 | 8.54625 | 34003 ft | 427 kts | 270° |
| 2026-05-06 10:01 | 46.03290 | 8.46143 | 34075 ft | 431 kts | 270° |
| 2026-05-06 10:02 | 46.03753 | 8.41867 | 34252 ft | 433 kts | 271° |
| 2026-05-06 10:02 | 46.04216 | 8.37583 | 34398 ft | 433 kts | 271° |
| 2026-05-06 10:02 | 46.04678 | 8.33280 | 34526 ft | 435 kts | 271° |
| 2026-05-06 10:02 | 46.05141 | 8.28949 | 34527 ft | 439 kts | 271° |
| 2026-05-06 10:03 | 46.06058 | 8.20254 | 34636 ft | 443 kts | 271° |
| 2026-05-06 10:03 | 46.06518 | 8.15876 | 34832 ft | 442 kts | 272° |
| 2026-05-06 10:03 | 46.06976 | 8.11499 | 35011 ft | 441 kts | 272° |
| 2026-05-06 10:04 | 46.07429 | 8.07178 | 35617 ft | 431 kts | 272° |
| 2026-05-06 10:04 | 46.08013 | 8.02952 | 35815 ft | 432 kts | 279° |
| 2026-05-06 10:04 | 46.10345 | 7.94984 | 35928 ft | 432 kts | 289° |
| 2026-05-06 10:05 | 46.13016 | 7.87160 | 35864 ft | 436 kts | 289° |
| 2026-05-06 10:05 | 46.15670 | 7.79279 | 35878 ft | 437 kts | 289° |
| 2026-05-06 10:06 | 46.18294 | 7.71392 | 35874 ft | 440 kts | 289° |
| 2026-05-06 10:06 | 46.20934 | 7.63408 | 35871 ft | 441 kts | 289° |
| 2026-05-06 10:07 | 46.23568 | 7.55412 | 35853 ft | 441 kts | 289° |
| 2026-05-06 10:07 | 46.26192 | 7.47430 | 35858 ft | 438 kts | 289° |
| 2026-05-06 10:08 | 46.28801 | 7.39468 | 35851 ft | 437 kts | 288° |
| 2026-05-06 10:08 | 46.31392 | 7.31530 | 35858 ft | 436 kts | 288° |
| 2026-05-06 10:09 | 46.33977 | 7.23587 | 35851 ft | 436 kts | 289° |
| 2026-05-06 10:09 | 46.36541 | 7.15685 | 35852 ft | 436 kts | 289° |
| 2026-05-06 10:10 | 46.39116 | 7.07726 | 35846 ft | 436 kts | 289° |
| 2026-05-06 10:10 | 46.41682 | 6.99774 | 35857 ft | 435 kts | 288° |
| 2026-05-06 10:11 | 46.44242 | 6.91807 | 35856 ft | 437 kts | 288° |
| 2026-05-06 10:11 | 46.46818 | 6.83767 | 35873 ft | 440 kts | 289° |
| 2026-05-06 10:12 | 46.49395 | 6.75703 | 35864 ft | 441 kts | 289° |
| 2026-05-06 10:12 | 46.51971 | 6.67620 | 35849 ft | 441 kts | 289° |
| 2026-05-06 10:13 | 46.54535 | 6.59549 | 35855 ft | 440 kts | 289° |
| 2026-05-06 10:13 | 46.57073 | 6.51530 | 35863 ft | 439 kts | 289° |
| 2026-05-06 10:14 | 46.59625 | 6.43441 | 35868 ft | 441 kts | 289° |
| 2026-05-06 10:14 | 46.62183 | 6.35302 | 35862 ft | 444 kts | 289° |
| 2026-05-06 10:15 | 46.64749 | 6.27118 | 35869 ft | 445 kts | 289° |
| 2026-05-06 10:15 | 46.67319 | 6.18896 | 35873 ft | 446 kts | 289° |
| 2026-05-06 10:16 | 46.69871 | 6.10705 | 35872 ft | 446 kts | 289° |
| 2026-05-06 10:16 | 46.72427 | 6.02475 | 35883 ft | 445 kts | 290° |
| 2026-05-06 10:17 | 46.74976 | 5.94238 | 35887 ft | 445 kts | 290° |
| 2026-05-06 10:17 | 46.77519 | 5.85993 | 35888 ft | 445 kts | 290° |
| 2026-05-06 10:18 | 46.80054 | 5.77752 | 35894 ft | 444 kts | 290° |
| 2026-05-06 10:18 | 46.83413 | 5.70097 | 35903 ft | 454 kts | 309° |
| 2026-05-06 10:19 | 46.87988 | 5.63703 | 35886 ft | 455 kts | 314° |
| 2026-05-06 10:19 | 46.92621 | 5.57504 | 35878 ft | 454 kts | 314° |
| 2026-05-06 10:20 | 46.97244 | 5.51215 | 35878 ft | 454 kts | 313° |
| 2026-05-06 10:20 | 47.01838 | 5.44881 | 35867 ft | 453 kts | 313° |
| 2026-05-06 10:21 | 47.06445 | 5.38497 | 35340 ft | 458 kts | 313° |
| 2026-05-06 10:21 | 47.08742 | 5.35311 | 34939 ft | 452 kts | 313° |
| 2026-05-06 10:21 | 47.11025 | 5.32141 | 34526 ft | 449 kts | 314° |
| 2026-05-06 10:22 | 47.13283 | 5.29001 | 34121 ft | 445 kts | 314° |
| 2026-05-06 10:22 | 47.15519 | 5.25889 | 33638 ft | 442 kts | 314° |
| 2026-05-06 10:22 | 47.17744 | 5.22788 | 33172 ft | 439 kts | 314° |
| 2026-05-06 10:22 | 47.19949 | 5.19710 | 32737 ft | 435 kts | 314° |
| 2026-05-06 10:23 | 47.22137 | 5.16652 | 32315 ft | 431 kts | 314° |
| 2026-05-06 10:23 | 47.24274 | 5.13663 | 31913 ft | 428 kts | 314° |
| 2026-05-06 10:23 | 47.26451 | 5.10615 | 31505 ft | 425 kts | 315° |
| 2026-05-06 10:23 | 47.28559 | 5.07599 | 31103 ft | 422 kts | 313° |
| 2026-05-06 10:24 | 47.30571 | 5.04539 | 30708 ft | 420 kts | 311° |
| 2026-05-06 10:24 | 47.32575 | 5.01412 | 30307 ft | 419 kts | 311° |
| 2026-05-06 10:24 | 47.34567 | 4.98291 | 29920 ft | 417 kts | 312° |
| 2026-05-06 10:24 | 47.36559 | 4.95182 | 29474 ft | 415 kts | 312° |
| 2026-05-06 10:25 | 47.38539 | 4.92106 | 29028 ft | 412 kts | 312° |
| 2026-05-06 10:25 | 47.40511 | 4.89053 | 28620 ft | 409 kts | 312° |
| 2026-05-06 10:25 | 47.42467 | 4.86027 | 28227 ft | 406 kts | 313° |
| 2026-05-06 10:25 | 47.44408 | 4.83022 | 27840 ft | 402 kts | 313° |
| 2026-05-06 10:26 | 47.46332 | 4.80041 | 27451 ft | 400 kts | 313° |
| 2026-05-06 10:26 | 47.48243 | 4.77076 | 27059 ft | 397 kts | 313° |
| 2026-05-06 10:26 | 47.50140 | 4.74130 | 26680 ft | 394 kts | 312° |
| 2026-05-06 10:26 | 47.52019 | 4.71209 | 26362 ft | 390 kts | 313° |
| 2026-05-06 10:27 | 47.53879 | 4.68315 | 26053 ft | 386 kts | 313° |
| 2026-05-06 10:27 | 47.55719 | 4.65449 | 25745 ft | 383 kts | 313° |
| 2026-05-06 10:27 | 47.57553 | 4.62589 | 25434 ft | 383 kts | 313° |
| 2026-05-06 10:27 | 47.59395 | 4.59714 | 25136 ft | 386 kts | 313° |
| 2026-05-06 10:28 | 47.61239 | 4.56830 | 24814 ft | 386 kts | 313° |
| 2026-05-06 10:28 | 47.63082 | 4.53948 | 24485 ft | 383 kts | 313° |
| 2026-05-06 10:28 | 47.64880 | 4.51132 | 24190 ft | 379 kts | 313° |
| 2026-05-06 10:28 | 47.66686 | 4.48300 | 23890 ft | 376 kts | 313° |
| 2026-05-06 10:29 | 47.68502 | 4.45449 | 23581 ft | 374 kts | 313° |
| 2026-05-06 10:29 | 47.70260 | 4.42687 | 23237 ft | 372 kts | 313° |
| 2026-05-06 10:29 | 47.72031 | 4.39901 | 22896 ft | 369 kts | 313° |
| 2026-05-06 10:29 | 47.73788 | 4.37133 | 22591 ft | 366 kts | 313° |
| 2026-05-06 10:30 | 47.75525 | 4.34394 | 22283 ft | 362 kts | 313° |
| 2026-05-06 10:30 | 47.77246 | 4.31679 | 22005 ft | 359 kts | 312° |
| 2026-05-06 10:30 | 47.78956 | 4.28978 | 21693 ft | 358 kts | 312° |
| 2026-05-06 10:30 | 47.80638 | 4.26318 | 21418 ft | 357 kts | 312° |
| 2026-05-06 10:31 | 47.82340 | 4.23623 | 21140 ft | 358 kts | 313° |
| 2026-05-06 10:31 | 47.84047 | 4.20916 | 20843 ft | 359 kts | 313° |
| 2026-05-06 10:31 | 47.85756 | 4.18207 | 20543 ft | 358 kts | 313° |
| 2026-05-06 10:31 | 47.87446 | 4.15484 | 20240 ft | 357 kts | 309° |
| 2026-05-06 10:32 | 47.88642 | 4.12282 | 19932 ft | 355 kts | 287° |
| 2026-05-06 10:32 | 47.89234 | 4.08728 | 19680 ft | 351 kts | 282° |
| 2026-05-06 10:32 | 47.89735 | 4.05181 | 19371 ft | 349 kts | 281° |
| 2026-05-06 10:32 | 47.90219 | 4.01652 | 19098 ft | 346 kts | 281° |
| 2026-05-06 10:33 | 47.90703 | 3.98147 | 18827 ft | 344 kts | 281° |
| 2026-05-06 10:33 | 47.91192 | 3.94666 | 18555 ft | 342 kts | 281° |
| 2026-05-06 10:33 | 47.91685 | 3.91199 | 18270 ft | 341 kts | 281° |
| 2026-05-06 10:33 | 47.92180 | 3.87738 | 17971 ft | 340 kts | 282° |
| 2026-05-06 10:34 | 47.92674 | 3.84304 | 17662 ft | 338 kts | 282° |
| 2026-05-06 10:34 | 47.93165 | 3.80890 | 17373 ft | 336 kts | 282° |
| 2026-05-06 10:34 | 47.93653 | 3.77497 | 17092 ft | 333 kts | 282° |
| 2026-05-06 10:34 | 47.94135 | 3.74130 | 16820 ft | 331 kts | 282° |
| 2026-05-06 10:35 | 47.94615 | 3.70780 | 16557 ft | 329 kts | 282° |
| 2026-05-06 10:35 | 47.94931 | 3.68569 | 16386 ft | 328 kts | 282° |
| 2026-05-06 10:35 | 47.95558 | 3.64176 | 16028 ft | 326 kts | 281° |
| 2026-05-06 10:35 | 47.96028 | 3.60871 | 15765 ft | 325 kts | 281° |
| 2026-05-06 10:36 | 47.96576 | 3.57624 | 15488 ft | 322 kts | 292° |
| 2026-05-06 10:36 | 47.97775 | 3.54842 | 15245 ft | 318 kts | 310° |
| 2026-05-06 10:36 | 47.99280 | 3.52452 | 14996 ft | 315 kts | 313° |
| 2026-05-06 10:36 | 48.00320 | 3.50896 | 14818 ft | 313 kts | 314° |
| 2026-05-06 10:37 | 48.01860 | 3.48615 | 14565 ft | 311 kts | 314° |
| 2026-05-06 10:37 | 48.03382 | 3.46352 | 14314 ft | 308 kts | 314° |
| 2026-05-06 10:37 | 48.04884 | 3.44095 | 14063 ft | 305 kts | 314° |
| 2026-05-06 10:37 | 48.06368 | 3.41851 | 13820 ft | 302 kts | 313° |
| 2026-05-06 10:38 | 48.07835 | 3.39619 | 13567 ft | 300 kts | 313° |
| 2026-05-06 10:38 | 48.09270 | 3.37428 | 13295 ft | 298 kts | 313° |
| 2026-05-06 10:38 | 48.10712 | 3.35223 | 13023 ft | 295 kts | 313° |
| 2026-05-06 10:38 | 48.12141 | 3.33031 | 12803 ft | 294 kts | 313° |
| 2026-05-06 10:39 | 48.13573 | 3.30835 | 12567 ft | 295 kts | 313° |
| 2026-05-06 10:39 | 48.15007 | 3.28630 | 12328 ft | 296 kts | 313° |
| 2026-05-06 10:39 | 48.16451 | 3.26411 | 12085 ft | 298 kts | 313° |
| 2026-05-06 10:39 | 48.17894 | 3.24177 | 11843 ft | 299 kts | 313° |
| 2026-05-06 10:40 | 48.19346 | 3.21945 | 11600 ft | 298 kts | 313° |
| 2026-05-06 10:40 | 48.20786 | 3.19732 | 11354 ft | 295 kts | 313° |
| 2026-05-06 10:40 | 48.22213 | 3.17539 | 11105 ft | 292 kts | 313° |
| 2026-05-06 10:40 | 48.23625 | 3.15367 | 10856 ft | 289 kts | 313° |
| 2026-05-06 10:41 | 48.25016 | 3.13226 | 10624 ft | 284 kts | 313° |
| 2026-05-06 10:41 | 48.26387 | 3.11112 | 10384 ft | 280 kts | 312° |
| 2026-05-06 10:41 | 48.27731 | 3.09037 | 10218 ft | 274 kts | 313° |
| 2026-05-06 10:41 | 48.29048 | 3.07004 | 10018 ft | 270 kts | 312° |
| 2026-05-06 10:42 | 48.30325 | 3.05031 | 9866 ft | 264 kts | 312° |
| 2026-05-06 10:42 | 48.31616 | 3.03032 | 9752 ft | 263 kts | 312° |
| 2026-05-06 10:42 | 48.32874 | 3.01084 | 9618 ft | 264 kts | 312° |
| 2026-05-06 10:42 | 48.34152 | 2.99104 | 9491 ft | 265 kts | 313° |
| 2026-05-06 10:43 | 48.35435 | 2.97114 | 9347 ft | 265 kts | 313° |
| 2026-05-06 10:43 | 48.36711 | 2.95133 | 9227 ft | 262 kts | 312° |
| 2026-05-06 10:43 | 48.37974 | 2.93172 | 9093 ft | 260 kts | 313° |
| 2026-05-06 10:44 | 48.40482 | 2.89272 | 8848 ft | 258 kts | 313° |
| 2026-05-06 10:44 | 48.41727 | 2.87334 | 8727 ft | 257 kts | 313° |
| 2026-05-06 10:44 | 48.42964 | 2.85407 | 8605 ft | 256 kts | 313° |
| 2026-05-06 10:44 | 48.44202 | 2.83477 | 8477 ft | 256 kts | 314° |
| 2026-05-06 10:45 | 48.45300 | 2.81366 | 8331 ft | 259 kts | 294° |
| 2026-05-06 10:45 | 48.45712 | 2.78716 | 8260 ft | 262 kts | 277° |
| 2026-05-06 10:45 | 48.45804 | 2.75993 | 8129 ft | 264 kts | 274° |
| 2026-05-06 10:45 | 48.45854 | 2.73234 | 7971 ft | 263 kts | 274° |
| 2026-05-06 10:46 | 48.45913 | 2.70472 | 7858 ft | 263 kts | 275° |
| 2026-05-06 10:46 | 48.45982 | 2.67725 | 7720 ft | 263 kts | 276° |
| 2026-05-06 10:46 | 48.46060 | 2.64970 | 7612 ft | 262 kts | 274° |
| 2026-05-06 10:46 | 48.46167 | 2.62224 | 7479 ft | 263 kts | 277° |
| 2026-05-06 10:47 | 48.46346 | 2.59487 | 7347 ft | 262 kts | 279° |
| 2026-05-06 10:47 | 48.46564 | 2.56770 | 7234 ft | 260 kts | 279° |
| 2026-05-06 10:47 | 48.46778 | 2.54062 | 7105 ft | 260 kts | 279° |
| 2026-05-06 10:47 | 48.47016 | 2.51361 | 6981 ft | 260 kts | 281° |
| 2026-05-06 10:48 | 48.47270 | 2.48656 | 6862 ft | 260 kts | 281° |
| 2026-05-06 10:48 | 48.47500 | 2.45979 | 6741 ft | 260 kts | 281° |
| 2026-05-06 10:48 | 48.47737 | 2.43276 | 6601 ft | 260 kts | 281° |
| 2026-05-06 10:48 | 48.47984 | 2.40571 | 6486 ft | 259 kts | 281° |
| 2026-05-06 10:49 | 48.48225 | 2.37884 | 6370 ft | 259 kts | 281° |
| 2026-05-06 10:49 | 48.48482 | 2.35194 | 6245 ft | 258 kts | 282° |
| 2026-05-06 10:49 | 48.48765 | 2.32524 | 6122 ft | 258 kts | 283° |
| 2026-05-06 10:49 | 48.49034 | 2.29843 | 6003 ft | 259 kts | 282° |
| 2026-05-06 10:50 | 48.49280 | 2.27143 | 5881 ft | 261 kts | 282° |
| 2026-05-06 10:50 | 48.49523 | 2.24415 | 5739 ft | 262 kts | 281° |
| 2026-05-06 10:50 | 48.49770 | 2.21709 | 5618 ft | 258 kts | 282° |
| 2026-05-06 10:50 | 48.50033 | 2.19097 | 5504 ft | 253 kts | 283° |
| 2026-05-06 10:51 | 48.50324 | 2.16488 | 5391 ft | 252 kts | 287° |
| 2026-05-06 10:51 | 48.51063 | 2.14173 | 5296 ft | 240 kts | 312° |
| 2026-05-06 10:51 | 48.52127 | 2.12298 | 5177 ft | 232 kts | 316° |
| 2026-05-06 10:51 | 48.53192 | 2.10520 | 5076 ft | 224 kts | 316° |
| 2026-05-06 10:52 | 48.54229 | 2.08796 | 4908 ft | 221 kts | 316° |
| 2026-05-06 10:52 | 48.55265 | 2.07072 | 4655 ft | 222 kts | 317° |
| 2026-05-06 10:52 | 48.56300 | 2.05351 | 4383 ft | 221 kts | 316° |
| 2026-05-06 10:52 | 48.57336 | 2.03630 | 4130 ft | 221 kts | 316° |
| 2026-05-06 10:53 | 48.58481 | 2.02187 | 3997 ft | 209 kts | 340° |
| 2026-05-06 10:53 | 48.59849 | 2.01975 | 3983 ft | 197 kts | 15° |
| 2026-05-06 10:53 | 48.61061 | 2.02888 | 3996 ft | 195 kts | 30° |
| 2026-05-06 10:53 | 48.62116 | 2.04133 | 3991 ft | 197 kts | 46° |
| 2026-05-06 10:54 | 48.62874 | 2.05817 | 3984 ft | 190 kts | 55° |
| 2026-05-06 10:54 | 48.63507 | 2.07502 | 3918 ft | 181 kts | 57° |
| 2026-05-06 10:54 | 48.64096 | 2.09157 | 3722 ft | 176 kts | 57° |
| 2026-05-06 10:54 | 48.64666 | 2.10779 | 3482 ft | 172 kts | 57° |
| 2026-05-06 10:55 | 48.65219 | 2.12361 | 3251 ft | 169 kts | 57° |
| 2026-05-06 10:55 | 48.65760 | 2.13906 | 3016 ft | 164 kts | 57° |
| 2026-05-06 10:55 | 48.66292 | 2.15424 | 2797 ft | 162 kts | 57° |
| 2026-05-06 10:55 | 48.66823 | 2.16938 | 2581 ft | 165 kts | 58° |
| 2026-05-06 10:56 | 48.67360 | 2.18471 | 2377 ft | 165 kts | 57° |
| 2026-05-06 10:56 | 48.67890 | 2.19983 | 2147 ft | 159 kts | 57° |
| 2026-05-06 10:56 | 48.68406 | 2.21453 | 1978 ft | 158 kts | 57° |
| 2026-05-06 10:56 | 48.68937 | 2.22965 | 1719 ft | 161 kts | 57° |
| 2026-05-06 10:57 | 48.69443 | 2.24410 | 1471 ft | 148 kts | 58° |
| 2026-05-06 10:57 | 48.69912 | 2.25745 | 1300 ft | 145 kts | 58° |
| 2026-05-06 10:57 | 48.70385 | 2.27085 | 1098 ft | 142 kts | 58° |
| 2026-05-06 10:57 | 48.70852 | 2.28408 | 863 ft | 143 kts | 59° |
| 2026-05-06 10:58 | 48.71312 | 2.29751 | 684 ft | 142 kts | 59° |
| 2026-05-06 10:58 | 48.71775 | 2.31070 | 462 ft | 143 kts | 58° |
| 2026-05-06 10:58 | 48.72242 | 2.32384 | 304 ft | 138 kts | 60° |
| 2026-05-06 10:58 | 48.72637 | 2.33498 | 294 ft | 92 kts | 61° |
| 2026-05-06 10:59 | 48.72851 | 2.34108 | 293 ft | 53 kts | 62° |
| 2026-05-06 10:59 | 48.72950 | 2.34386 | 290 ft | 24 kts | 66° |
| 2026-05-06 10:59 | 48.72998 | 2.34627 | 291 ft | 25 kts | 82° |
| 2026-05-06 10:59 | 48.73022 | 2.34881 | 291 ft | 23 kts | 82° |
| 2026-05-06 11:00 | 48.73040 | 2.35119 | 290 ft | 23 kts | 97° |
| 2026-05-06 11:00 | 48.72952 | 2.35299 | 295 ft | 22 kts | 156° |
| 2026-05-06 11:00 | 48.72800 | 2.35280 | 292 ft | 23 kts | 199° |
| 2026-05-06 11:00 | 48.72642 | 2.35281 | 290 ft | 23 kts | 165° |
| 2026-05-06 11:01 | 48.72495 | 2.35342 | 292 ft | 20 kts | 165° |
| 2026-05-06 11:01 | 48.72430 | 2.35489 | 293 ft | 19 kts | 81° |
| 2026-05-06 11:01 | 48.72464 | 2.35682 | 292 ft | 19 kts | 73° |
| 2026-05-06 11:01 | 48.72473 | 2.35872 | 294 ft | 18 kts | 97° |
| 2026-05-06 11:02 | 48.72477 | 2.36058 | 295 ft | 17 kts | 79° |
| 2026-05-06 11:02 | 48.72506 | 2.36225 | 293 ft | 10 kts | 73° |
| 2026-05-06 11:02 | 48.72542 | 2.36264 | 290 ft | 6 kts | 351° |
| 2026-05-06 11:02 | 48.72583 | 2.36250 | 291 ft | 2 kts | 348° |
| 2026-05-06 11:03 | 48.72588 | 2.36249 | 291 ft | 0 kts | 348° |